sensor_id;sensor_type;location;lat;lon;timestamp;temperature;humidity
29547;DHT22;40782;47.264;11.330;2022-09-16T00:01:23;15.70;1.00
29547;DHT22;40782;47.264;11.330;2022-09-16T00:03:53;15.60;1.00
29547;DHT22;40782;47.264;11.330;2022-09-16T00:06:23;15.60;1.00
29547;DHT22;40782;47.264;11.330;2022-09-16T00:08:52;15.60;1.00
29547;DHT22;40782;47.264;11.330;2022-09-16T00:11:22;15.60;1.00
29547;DHT22;40782;47.264;11.330;2022-09-16T00:13:49;15.60;1.00
29547;DHT22;40782;47.264;11.330;2022-09-16T00:16:19;15.60;1.00
29547;DHT22;40782;47.264;11.330;2022-09-16T00:18:46;15.60;1.00
29547;DHT22;40782;47.264;11.330;2022-09-16T00:21:13;15.60;1.00
29547;DHT22;40782;47.264;11.330;2022-09-16T00:23:41;15.70;1.00
29547;DHT22;40782;47.264;11.330;2022-09-16T00:26:08;15.70;1.00
29547;DHT22;40782;47.264;11.330;2022-09-16T00:28:36;15.70;1.00
29547;DHT22;40782;47.264;11.330;2022-09-16T00:31:04;15.70;1.00
29547;DHT22;40782;47.264;11.330;2022-09-16T00:33:31;15.70;1.00
29547;DHT22;40782;47.264;11.330;2022-09-16T00:36:06;15.70;1.00
29547;DHT22;40782;47.264;11.330;2022-09-16T00:38:34;15.70;1.00
29547;DHT22;40782;47.264;11.330;2022-09-16T00:41:01;15.70;1.00
29547;DHT22;40782;47.264;11.330;2022-09-16T00:46:12;15.70;1.00
29547;DHT22;40782;47.264;11.330;2022-09-16T00:48:40;15.70;1.00
29547;DHT22;40782;47.264;11.330;2022-09-16T00:51:08;15.70;1.00
29547;DHT22;40782;47.264;11.330;2022-09-16T00:53:41;15.70;1.00
29547;DHT22;40782;47.264;11.330;2022-09-16T00:56:12;15.70;1.00
29547;DHT22;40782;47.264;11.330;2022-09-16T00:58:43;15.70;1.00
29547;DHT22;40782;47.264;11.330;2022-09-16T01:01:12;15.70;1.00
29547;DHT22;40782;47.264;11.330;2022-09-16T01:03:44;15.70;1.00
29547;DHT22;40782;47.264;11.330;2022-09-16T01:06:13;15.70;1.00
29547;DHT22;40782;47.264;11.330;2022-09-16T01:08:41;15.70;1.00
29547;DHT22;40782;47.264;11.330;2022-09-16T01:11:09;15.70;1.00
29547;DHT22;40782;47.264;11.330;2022-09-16T01:13:36;15.70;1.00
29547;DHT22;40782;47.264;11.330;2022-09-16T01:16:07;15.70;1.00
29547;DHT22;40782;47.264;11.330;2022-09-16T01:18:41;15.70;1.00
29547;DHT22;40782;47.264;11.330;2022-09-16T01:21:28;15.70;1.00
29547;DHT22;40782;47.264;11.330;2022-09-16T01:27:27;15.70;1.00
29547;DHT22;40782;47.264;11.330;2022-09-16T01:32:59;15.80;1.00
29547;DHT22;40782;47.264;11.330;2022-09-16T01:35:39;15.70;1.00
29547;DHT22;40782;47.264;11.330;2022-09-16T01:38:19;15.70;1.00
29547;DHT22;40782;47.264;11.330;2022-09-16T01:40:54;15.70;1.00
29547;DHT22;40782;47.264;11.330;2022-09-16T01:43:30;15.70;1.00
29547;DHT22;40782;47.264;11.330;2022-09-16T01:46:03;15.70;1.00
29547;DHT22;40782;47.264;11.330;2022-09-16T01:48:38;15.70;1.00
29547;DHT22;40782;47.264;11.330;2022-09-16T01:51:11;15.70;1.00
29547;DHT22;40782;47.264;11.330;2022-09-16T01:53:44;15.70;1.00
29547;DHT22;40782;47.264;11.330;2022-09-16T01:56:19;15.70;1.00
29547;DHT22;40782;47.264;11.330;2022-09-16T01:58:50;15.70;1.00
29547;DHT22;40782;47.264;11.330;2022-09-16T02:01:23;15.70;1.00
29547;DHT22;40782;47.264;11.330;2022-09-16T02:03:59;15.70;1.00
29547;DHT22;40782;47.264;11.330;2022-09-16T02:06:29;15.70;1.00
29547;DHT22;40782;47.264;11.330;2022-09-16T02:09:00;15.60;1.00
29547;DHT22;40782;47.264;11.330;2022-09-16T02:11:29;15.70;1.00
29547;DHT22;40782;47.264;11.330;2022-09-16T02:14:00;15.70;1.00
29547;DHT22;40782;47.264;11.330;2022-09-16T02:16:33;15.70;1.00
29547;DHT22;40782;47.264;11.330;2022-09-16T02:19:07;15.70;1.00
29547;DHT22;40782;47.264;11.330;2022-09-16T02:21:36;15.70;1.00
29547;DHT22;40782;47.264;11.330;2022-09-16T02:24:09;15.70;1.00
29547;DHT22;40782;47.264;11.330;2022-09-16T02:26:43;15.70;1.00
29547;DHT22;40782;47.264;11.330;2022-09-16T02:29:14;15.70;1.00
29547;DHT22;40782;47.264;11.330;2022-09-16T02:31:43;15.60;1.00
29547;DHT22;40782;47.264;11.330;2022-09-16T02:34:13;15.70;1.00
29547;DHT22;40782;47.264;11.330;2022-09-16T02:36:44;15.60;1.00
29547;DHT22;40782;47.264;11.330;2022-09-16T02:39:16;15.60;1.00
29547;DHT22;40782;47.264;11.330;2022-09-16T02:41:43;15.60;1.00
29547;DHT22;40782;47.264;11.330;2022-09-16T02:44:11;15.60;1.00
29547;DHT22;40782;47.264;11.330;2022-09-16T02:46:44;15.60;1.00
29547;DHT22;40782;47.264;11.330;2022-09-16T02:49:22;15.60;1.00
29547;DHT22;40782;47.264;11.330;2022-09-16T02:51:57;15.60;1.00
29547;DHT22;40782;47.264;11.330;2022-09-16T02:54:33;15.60;1.00
29547;DHT22;40782;47.264;11.330;2022-09-16T02:57:03;15.50;1.00
29547;DHT22;40782;47.264;11.330;2022-09-16T02:59:30;15.50;1.00
29547;DHT22;40782;47.264;11.330;2022-09-16T03:01:58;15.60;1.00
29547;DHT22;40782;47.264;11.330;2022-09-16T03:04:28;15.60;1.00
29547;DHT22;40782;47.264;11.330;2022-09-16T03:06:55;15.60;1.00
29547;DHT22;40782;47.264;11.330;2022-09-16T03:09:23;15.60;1.00
29547;DHT22;40782;47.264;11.330;2022-09-16T03:12:16;15.60;1.00
29547;DHT22;40782;47.264;11.330;2022-09-16T03:15:08;15.60;1.00
29547;DHT22;40782;47.264;11.330;2022-09-16T03:17:51;15.50;1.00
29547;DHT22;40782;47.264;11.330;2022-09-16T03:20:30;15.50;1.00
29547;DHT22;40782;47.264;11.330;2022-09-16T03:23:09;15.50;1.00
29547;DHT22;40782;47.264;11.330;2022-09-16T03:25:44;15.50;1.00
29547;DHT22;40782;47.264;11.330;2022-09-16T03:28:17;15.50;1.00
29547;DHT22;40782;47.264;11.330;2022-09-16T03:30:51;15.50;1.00
29547;DHT22;40782;47.264;11.330;2022-09-16T03:33:24;15.50;1.00
29547;DHT22;40782;47.264;11.330;2022-09-16T03:35:57;15.50;1.00
29547;DHT22;40782;47.264;11.330;2022-09-16T03:38:26;15.50;1.00
29547;DHT22;40782;47.264;11.330;2022-09-16T03:40:54;15.50;1.00
29547;DHT22;40782;47.264;11.330;2022-09-16T03:43:21;15.50;1.00
29547;DHT22;40782;47.264;11.330;2022-09-16T03:45:50;15.50;1.00
29547;DHT22;40782;47.264;11.330;2022-09-16T03:48:17;15.40;1.00
29547;DHT22;40782;47.264;11.330;2022-09-16T03:50:44;15.40;1.00
29547;DHT22;40782;47.264;11.330;2022-09-16T03:53:13;15.40;1.00
29547;DHT22;40782;47.264;11.330;2022-09-16T03:55:40;15.40;1.00
29547;DHT22;40782;47.264;11.330;2022-09-16T03:58:07;15.30;1.00
29547;DHT22;40782;47.264;11.330;2022-09-16T04:00:35;15.30;1.00
29547;DHT22;40782;47.264;11.330;2022-09-16T04:03:02;15.30;1.00
29547;DHT22;40782;47.264;11.330;2022-09-16T04:05:29;15.30;1.00
29547;DHT22;40782;47.264;11.330;2022-09-16T04:07:57;15.30;1.00
29547;DHT22;40782;47.264;11.330;2022-09-16T04:10:25;15.30;1.00
29547;DHT22;40782;47.264;11.330;2022-09-16T04:12:56;15.30;1.00
29547;DHT22;40782;47.264;11.330;2022-09-16T04:15:23;15.30;1.00
29547;DHT22;40782;47.264;11.330;2022-09-16T04:17:51;15.20;1.00
29547;DHT22;40782;47.264;11.330;2022-09-16T04:20:18;15.30;1.00
29547;DHT22;40782;47.264;11.330;2022-09-16T04:22:45;15.20;1.00
29547;DHT22;40782;47.264;11.330;2022-09-16T04:25:12;15.20;1.00
29547;DHT22;40782;47.264;11.330;2022-09-16T04:27:41;15.10;1.00
29547;DHT22;40782;47.264;11.330;2022-09-16T04:30:10;15.10;1.00
29547;DHT22;40782;47.264;11.330;2022-09-16T04:32:37;15.10;1.00
29547;DHT22;40782;47.264;11.330;2022-09-16T04:35:05;15.00;1.00
29547;DHT22;40782;47.264;11.330;2022-09-16T04:37:32;15.00;1.00
29547;DHT22;40782;47.264;11.330;2022-09-16T04:39:59;15.00;1.00
29547;DHT22;40782;47.264;11.330;2022-09-16T04:42:26;15.00;1.00
29547;DHT22;40782;47.264;11.330;2022-09-16T04:44:55;14.90;93.00
29547;DHT22;40782;47.264;11.330;2022-09-16T04:47:23;14.90;98.60
29547;DHT22;40782;47.264;11.330;2022-09-16T04:49:50;14.90;99.90
29547;DHT22;40782;47.264;11.330;2022-09-16T04:52:17;14.90;99.90
29547;DHT22;40782;47.264;11.330;2022-09-16T04:54:44;14.90;99.90
29547;DHT22;40782;47.264;11.330;2022-09-16T04:57:11;14.90;99.90
29547;DHT22;40782;47.264;11.330;2022-09-16T04:59:38;14.90;99.90
29547;DHT22;40782;47.264;11.330;2022-09-16T05:02:07;14.90;99.90
29547;DHT22;40782;47.264;11.330;2022-09-16T05:04:34;14.80;1.00
29547;DHT22;40782;47.264;11.330;2022-09-16T05:07:02;14.80;1.00
29547;DHT22;40782;47.264;11.330;2022-09-16T05:09:29;14.80;1.00
29547;DHT22;40782;47.264;11.330;2022-09-16T05:11:56;14.80;1.00
29547;DHT22;40782;47.264;11.330;2022-09-16T05:14:23;14.80;99.90
29547;DHT22;40782;47.264;11.330;2022-09-16T05:16:50;14.80;99.90
29547;DHT22;40782;47.264;11.330;2022-09-16T05:19:19;14.70;1.00
29547;DHT22;40782;47.264;11.330;2022-09-16T05:21:47;14.70;1.00
29547;DHT22;40782;47.264;11.330;2022-09-16T05:24:14;14.80;1.00
29547;DHT22;40782;47.264;11.330;2022-09-16T05:26:41;14.70;1.00
29547;DHT22;40782;47.264;11.330;2022-09-16T05:29:12;14.80;99.90
29547;DHT22;40782;47.264;11.330;2022-09-16T05:31:41;14.70;99.90
29547;DHT22;40782;47.264;11.330;2022-09-16T05:34:12;14.70;99.90
29547;DHT22;40782;47.264;11.330;2022-09-16T05:36:41;14.70;99.90
29547;DHT22;40782;47.264;11.330;2022-09-16T05:39:09;14.60;1.00
29547;DHT22;40782;47.264;11.330;2022-09-16T05:41:38;14.60;92.90
29547;DHT22;40782;47.264;11.330;2022-09-16T05:44:05;14.50;42.70
29547;DHT22;40782;47.264;11.330;2022-09-16T05:46:32;14.50;99.90
29547;DHT22;40782;47.264;11.330;2022-09-16T05:49:00;14.50;99.90
29547;DHT22;40782;47.264;11.330;2022-09-16T05:51:28;14.40;95.50
29547;DHT22;40782;47.264;11.330;2022-09-16T05:53:57;14.40;1.00
29547;DHT22;40782;47.264;11.330;2022-09-16T05:56:27;14.30;1.00
29547;DHT22;40782;47.264;11.330;2022-09-16T05:58:56;14.30;1.00
29547;DHT22;40782;47.264;11.330;2022-09-16T06:01:24;14.20;1.00
29547;DHT22;40782;47.264;11.330;2022-09-16T06:03:52;14.20;99.90
29547;DHT22;40782;47.264;11.330;2022-09-16T06:06:23;14.20;1.00
29547;DHT22;40782;47.264;11.330;2022-09-16T06:08:51;14.20;13.40
29547;DHT22;40782;47.264;11.330;2022-09-16T06:11:20;14.30;1.00
29547;DHT22;40782;47.264;11.330;2022-09-16T06:13:52;14.30;99.90
29547;DHT22;40782;47.264;11.330;2022-09-16T06:16:21;14.20;99.90
29547;DHT22;40782;47.264;11.330;2022-09-16T06:18:50;14.20;1.00
29547;DHT22;40782;47.264;11.330;2022-09-16T06:21:17;14.30;1.00
29547;DHT22;40782;47.264;11.330;2022-09-16T06:23:45;14.30;1.00
29547;DHT22;40782;47.264;11.330;2022-09-16T06:26:13;14.30;1.00
29547;DHT22;40782;47.264;11.330;2022-09-16T06:28:42;14.40;1.00
29547;DHT22;40782;47.264;11.330;2022-09-16T06:31:11;14.50;1.00
29547;DHT22;40782;47.264;11.330;2022-09-16T06:33:38;14.50;99.90
29547;DHT22;40782;47.264;11.330;2022-09-16T06:36:07;14.60;1.00
29547;DHT22;40782;47.264;11.330;2022-09-16T06:38:35;14.60;1.00
29547;DHT22;40782;47.264;11.330;2022-09-16T06:41:04;14.70;1.00
29547;DHT22;40782;47.264;11.330;2022-09-16T06:43:31;14.70;1.00
29547;DHT22;40782;47.264;11.330;2022-09-16T06:46:03;14.70;99.90
29547;DHT22;40782;47.264;11.330;2022-09-16T06:48:32;14.80;1.00
29547;DHT22;40782;47.264;11.330;2022-09-16T06:51:00;14.80;99.90
29547;DHT22;40782;47.264;11.330;2022-09-16T06:53:28;14.90;1.00
29547;DHT22;40782;47.264;11.330;2022-09-16T06:55:59;14.90;1.00
29547;DHT22;40782;47.264;11.330;2022-09-16T06:58:27;15.00;26.80
29547;DHT22;40782;47.264;11.330;2022-09-16T07:00:55;15.00;1.00
29547;DHT22;40782;47.264;11.330;2022-09-16T07:03:24;15.00;1.00
29547;DHT22;40782;47.264;11.330;2022-09-16T07:05:55;15.00;99.90
29547;DHT22;40782;47.264;11.330;2022-09-16T07:08:23;15.00;99.90
29547;DHT22;40782;47.264;11.330;2022-09-16T07:11:00;15.10;99.90
29547;DHT22;40782;47.264;11.330;2022-09-16T07:13:29;15.10;1.00
29547;DHT22;40782;47.264;11.330;2022-09-16T07:15:58;15.10;1.00
29547;DHT22;40782;47.264;11.330;2022-09-16T07:18:27;15.10;99.90
29547;DHT22;40782;47.264;11.330;2022-09-16T07:21:00;15.10;1.00
29547;DHT22;40782;47.264;11.330;2022-09-16T07:23:29;15.20;1.00
29547;DHT22;40782;47.264;11.330;2022-09-16T07:26:00;15.20;99.90
29547;DHT22;40782;47.264;11.330;2022-09-16T07:28:28;15.20;64.40
29547;DHT22;40782;47.264;11.330;2022-09-16T07:30:55;15.20;99.90
29547;DHT22;40782;47.264;11.330;2022-09-16T07:33:22;15.20;99.90
29547;DHT22;40782;47.264;11.330;2022-09-16T07:35:51;15.20;8.30
29547;DHT22;40782;47.264;11.330;2022-09-16T07:38:18;15.20;29.90
29547;DHT22;40782;47.264;11.330;2022-09-16T07:40:45;15.20;99.90
29547;DHT22;40782;47.264;11.330;2022-09-16T07:43:12;15.30;99.90
29547;DHT22;40782;47.264;11.330;2022-09-16T07:45:39;15.30;99.90
29547;DHT22;40782;47.264;11.330;2022-09-16T07:48:06;15.30;99.90
29547;DHT22;40782;47.264;11.330;2022-09-16T07:50:34;15.40;99.90
29547;DHT22;40782;47.264;11.330;2022-09-16T07:53:03;15.40;99.90
29547;DHT22;40782;47.264;11.330;2022-09-16T07:55:30;15.40;99.90
29547;DHT22;40782;47.264;11.330;2022-09-16T07:57:57;15.40;1.00
29547;DHT22;40782;47.264;11.330;2022-09-16T08:00:24;15.40;1.00
29547;DHT22;40782;47.264;11.330;2022-09-16T08:02:55;15.50;1.00
29547;DHT22;40782;47.264;11.330;2022-09-16T08:05:22;15.50;1.00
29547;DHT22;40782;47.264;11.330;2022-09-16T08:07:49;15.60;1.00
29547;DHT22;40782;47.264;11.330;2022-09-16T08:10:18;15.50;1.00
29547;DHT22;40782;47.264;11.330;2022-09-16T08:12:46;15.60;1.00
29547;DHT22;40782;47.264;11.330;2022-09-16T08:15:13;15.70;1.00
29547;DHT22;40782;47.264;11.330;2022-09-16T08:17:40;15.80;1.00
29547;DHT22;40782;47.264;11.330;2022-09-16T08:20:08;15.90;1.00
29547;DHT22;40782;47.264;11.330;2022-09-16T08:22:35;16.00;1.00
29547;DHT22;40782;47.264;11.330;2022-09-16T08:25:02;16.00;1.00
29547;DHT22;40782;47.264;11.330;2022-09-16T08:27:33;16.10;1.00
29547;DHT22;40782;47.264;11.330;2022-09-16T08:30:01;16.20;99.90
29547;DHT22;40782;47.264;11.330;2022-09-16T08:32:28;16.30;99.90
29547;DHT22;40782;47.264;11.330;2022-09-16T08:34:55;16.50;99.90
29547;DHT22;40782;47.264;11.330;2022-09-16T08:37:23;16.80;99.90
29547;DHT22;40782;47.264;11.330;2022-09-16T08:39:50;17.10;99.90
29547;DHT22;40782;47.264;11.330;2022-09-16T08:42:43;17.30;1.00
29547;DHT22;40782;47.264;11.330;2022-09-16T08:45:19;17.30;1.00
29547;DHT22;40782;47.264;11.330;2022-09-16T08:48:00;17.40;1.00
29547;DHT22;40782;47.264;11.330;2022-09-16T08:50:36;17.50;1.00
29547;DHT22;40782;47.264;11.330;2022-09-16T08:53:09;17.60;1.00
29547;DHT22;40782;47.264;11.330;2022-09-16T08:55:39;17.70;1.00
29547;DHT22;40782;47.264;11.330;2022-09-16T08:58:14;17.70;1.00
29547;DHT22;40782;47.264;11.330;2022-09-16T09:00:43;17.80;1.00
29547;DHT22;40782;47.264;11.330;2022-09-16T09:03:17;17.90;1.00
29547;DHT22;40782;47.264;11.330;2022-09-16T09:05:50;18.10;1.00
29547;DHT22;40782;47.264;11.330;2022-09-16T09:08:31;18.20;1.00
29547;DHT22;40782;47.264;11.330;2022-09-16T09:11:05;18.40;1.00
29547;DHT22;40782;47.264;11.330;2022-09-16T09:13:51;18.60;1.00
29547;DHT22;40782;47.264;11.330;2022-09-16T09:16:29;18.80;1.00
29547;DHT22;40782;47.264;11.330;2022-09-16T09:19:05;19.00;1.00
29547;DHT22;40782;47.264;11.330;2022-09-16T09:21:39;19.10;1.00
29547;DHT22;40782;47.264;11.330;2022-09-16T09:24:40;19.20;1.00
29547;DHT22;40782;47.264;11.330;2022-09-16T09:27:14;19.40;1.00
29547;DHT22;40782;47.264;11.330;2022-09-16T09:29:51;19.30;1.00
29547;DHT22;40782;47.264;11.330;2022-09-16T09:32:28;19.40;1.00
29547;DHT22;40782;47.264;11.330;2022-09-16T09:35:09;19.50;1.00
29547;DHT22;40782;47.264;11.330;2022-09-16T09:37:56;19.60;1.00
29547;DHT22;40782;47.264;11.330;2022-09-16T09:40:31;19.70;1.00
29547;DHT22;40782;47.264;11.330;2022-09-16T09:43:06;19.90;1.00
29547;DHT22;40782;47.264;11.330;2022-09-16T09:45:41;19.90;1.00
29547;DHT22;40782;47.264;11.330;2022-09-16T09:48:17;20.20;1.00
29547;DHT22;40782;47.264;11.330;2022-09-16T09:50:48;20.40;1.00
29547;DHT22;40782;47.264;11.330;2022-09-16T09:53:19;20.60;99.90
29547;DHT22;40782;47.264;11.330;2022-09-16T09:55:51;20.80;99.90
29547;DHT22;40782;47.264;11.330;2022-09-16T09:58:25;21.00;99.90
29547;DHT22;40782;47.264;11.330;2022-09-16T10:00:55;21.30;99.90
29547;DHT22;40782;47.264;11.330;2022-09-16T10:03:24;21.50;99.90
29547;DHT22;40782;47.264;11.330;2022-09-16T10:05:51;21.60;99.90
29547;DHT22;40782;47.264;11.330;2022-09-16T10:08:24;21.80;99.90
29547;DHT22;40782;47.264;11.330;2022-09-16T10:10:53;21.90;99.90
29547;DHT22;40782;47.264;11.330;2022-09-16T10:13:22;22.20;99.90
29547;DHT22;40782;47.264;11.330;2022-09-16T10:15:52;22.50;99.90
29547;DHT22;40782;47.264;11.330;2022-09-16T10:18:25;22.60;99.90
29547;DHT22;40782;47.264;11.330;2022-09-16T10:21:01;22.70;99.90
29547;DHT22;40782;47.264;11.330;2022-09-16T10:23:29;22.80;99.90
29547;DHT22;40782;47.264;11.330;2022-09-16T10:26:16;22.80;99.90
29547;DHT22;40782;47.264;11.330;2022-09-16T10:28:59;22.70;99.90
29547;DHT22;40782;47.264;11.330;2022-09-16T10:31:33;22.60;99.90
29547;DHT22;40782;47.264;11.330;2022-09-16T10:34:04;22.50;99.90
29547;DHT22;40782;47.264;11.330;2022-09-16T10:36:39;22.30;99.90
29547;DHT22;40782;47.264;11.330;2022-09-16T10:39:20;22.30;99.90
29547;DHT22;40782;47.264;11.330;2022-09-16T10:41:49;22.50;99.90
29547;DHT22;40782;47.264;11.330;2022-09-16T10:44:20;22.90;99.90
29547;DHT22;40782;47.264;11.330;2022-09-16T10:46:53;23.20;99.90
29547;DHT22;40782;47.264;11.330;2022-09-16T10:49:30;23.40;99.90
29547;DHT22;40782;47.264;11.330;2022-09-16T10:52:07;23.70;99.90
29547;DHT22;40782;47.264;11.330;2022-09-16T10:54:35;24.30;99.90
29547;DHT22;40782;47.264;11.330;2022-09-16T10:57:02;24.70;99.90
29547;DHT22;40782;47.264;11.330;2022-09-16T10:59:29;25.20;99.90
29547;DHT22;40782;47.264;11.330;2022-09-16T11:02:05;25.30;99.90
29547;DHT22;40782;47.264;11.330;2022-09-16T11:04:51;25.10;99.90
29547;DHT22;40782;47.264;11.330;2022-09-16T11:07:33;25.00;99.90
29547;DHT22;40782;47.264;11.330;2022-09-16T11:10:09;25.10;99.90
29547;DHT22;40782;47.264;11.330;2022-09-16T11:12:54;25.40;99.90
29547;DHT22;40782;47.264;11.330;2022-09-16T11:15:34;26.00;99.90
29547;DHT22;40782;47.264;11.330;2022-09-16T11:18:14;26.80;99.90
29547;DHT22;40782;47.264;11.330;2022-09-16T11:21:05;27.00;99.90
29547;DHT22;40782;47.264;11.330;2022-09-16T11:23:55;26.70;99.90
29547;DHT22;40782;47.264;11.330;2022-09-16T11:26:32;26.30;99.90
29547;DHT22;40782;47.264;11.330;2022-09-16T11:29:27;26.10;99.90
29547;DHT22;40782;47.264;11.330;2022-09-16T11:32:01;26.00;99.90
29547;DHT22;40782;47.264;11.330;2022-09-16T11:34:43;26.00;99.90
29547;DHT22;40782;47.264;11.330;2022-09-16T11:37:19;25.90;99.90
29547;DHT22;40782;47.264;11.330;2022-09-16T11:40:10;25.80;99.90
29547;DHT22;40782;47.264;11.330;2022-09-16T11:42:41;25.60;99.90
29547;DHT22;40782;47.264;11.330;2022-09-16T11:45:23;25.20;99.90
29547;DHT22;40782;47.264;11.330;2022-09-16T11:48:16;25.00;99.90
29547;DHT22;40782;47.264;11.330;2022-09-16T11:50:50;25.50;99.90
29547;DHT22;40782;47.264;11.330;2022-09-16T11:53:37;26.30;99.90
29547;DHT22;40782;47.264;11.330;2022-09-16T11:56:09;27.10;99.90
29547;DHT22;40782;47.264;11.330;2022-09-16T11:58:41;27.60;99.90
29547;DHT22;40782;47.264;11.330;2022-09-16T12:01:28;27.80;99.90
29547;DHT22;40782;47.264;11.330;2022-09-16T12:04:01;28.10;99.90
29547;DHT22;40782;47.264;11.330;2022-09-16T12:06:37;28.40;99.90
29547;DHT22;40782;47.264;11.330;2022-09-16T12:09:12;29.00;99.90
29547;DHT22;40782;47.264;11.330;2022-09-16T12:11:43;29.50;99.90
29547;DHT22;40782;47.264;11.330;2022-09-16T12:14:14;29.70;99.90
29547;DHT22;40782;47.264;11.330;2022-09-16T12:16:47;29.40;99.90
29547;DHT22;40782;47.264;11.330;2022-09-16T12:19:18;29.10;99.90
29547;DHT22;40782;47.264;11.330;2022-09-16T12:21:51;29.10;99.90
29547;DHT22;40782;47.264;11.330;2022-09-16T12:24:26;29.30;99.90
29547;DHT22;40782;47.264;11.330;2022-09-16T12:27:02;28.80;99.90
29547;DHT22;40782;47.264;11.330;2022-09-16T12:29:35;28.10;99.90
29547;DHT22;40782;47.264;11.330;2022-09-16T12:32:07;27.50;99.90
29547;DHT22;40782;47.264;11.330;2022-09-16T12:34:38;27.00;99.90
29547;DHT22;40782;47.264;11.330;2022-09-16T12:37:26;26.60;99.90
29547;DHT22;40782;47.264;11.330;2022-09-16T12:39:57;26.10;99.90
29547;DHT22;40782;47.264;11.330;2022-09-16T12:42:59;25.70;99.90
29547;DHT22;40782;47.264;11.330;2022-09-16T12:45:53;25.40;99.90
29547;DHT22;40782;47.264;11.330;2022-09-16T12:48:45;25.00;99.90
29547;DHT22;40782;47.264;11.330;2022-09-16T12:51:48;24.40;99.90
29547;DHT22;40782;47.264;11.330;2022-09-16T12:54:53;24.30;99.90
29547;DHT22;40782;47.264;11.330;2022-09-16T12:57:38;24.20;99.90
29547;DHT22;40782;47.264;11.330;2022-09-16T13:00:18;24.10;99.90
29547;DHT22;40782;47.264;11.330;2022-09-16T13:02:48;24.00;99.90
29547;DHT22;40782;47.264;11.330;2022-09-16T13:05:21;24.00;99.90
29547;DHT22;40782;47.264;11.330;2022-09-16T13:07:52;23.90;99.90
29547;DHT22;40782;47.264;11.330;2022-09-16T13:10:25;23.90;99.90
29547;DHT22;40782;47.264;11.330;2022-09-16T13:12:56;23.90;99.90
29547;DHT22;40782;47.264;11.330;2022-09-16T13:15:25;23.90;99.90
29547;DHT22;40782;47.264;11.330;2022-09-16T13:17:53;23.70;99.90
29547;DHT22;40782;47.264;11.330;2022-09-16T13:20:26;23.60;99.90
29547;DHT22;40782;47.264;11.330;2022-09-16T13:23:05;23.40;99.90
29547;DHT22;40782;47.264;11.330;2022-09-16T13:25:44;23.30;99.90
29547;DHT22;40782;47.264;11.330;2022-09-16T13:28:26;23.10;99.90
29547;DHT22;40782;47.264;11.330;2022-09-16T13:31:19;22.90;99.90
29547;DHT22;40782;47.264;11.330;2022-09-16T13:33:48;22.90;99.90
29547;DHT22;40782;47.264;11.330;2022-09-16T13:36:29;22.80;99.90
29547;DHT22;40782;47.264;11.330;2022-09-16T13:38:59;22.80;99.90
29547;DHT22;40782;47.264;11.330;2022-09-16T13:41:35;22.80;99.90
29547;DHT22;40782;47.264;11.330;2022-09-16T13:44:26;22.80;99.90
29547;DHT22;40782;47.264;11.330;2022-09-16T13:47:11;22.80;99.90
29547;DHT22;40782;47.264;11.330;2022-09-16T13:49:43;22.80;99.90
29547;DHT22;40782;47.264;11.330;2022-09-16T13:52:17;22.70;99.90
29547;DHT22;40782;47.264;11.330;2022-09-16T13:54:48;22.70;99.90
29547;DHT22;40782;47.264;11.330;2022-09-16T13:57:39;22.70;99.90
29547;DHT22;40782;47.264;11.330;2022-09-16T14:00:18;22.60;99.90
29547;DHT22;40782;47.264;11.330;2022-09-16T14:03:05;22.60;99.90
29547;DHT22;40782;47.264;11.330;2022-09-16T14:06:01;22.40;99.90
29547;DHT22;40782;47.264;11.330;2022-09-16T14:08:38;22.40;99.90
29547;DHT22;40782;47.264;11.330;2022-09-16T14:11:13;22.30;99.90
29547;DHT22;40782;47.264;11.330;2022-09-16T14:13:44;22.20;99.90
29547;DHT22;40782;47.264;11.330;2022-09-16T14:16:18;22.20;99.90
29547;DHT22;40782;47.264;11.330;2022-09-16T14:18:52;22.10;99.90
29547;DHT22;40782;47.264;11.330;2022-09-16T14:21:21;22.00;99.90
29547;DHT22;40782;47.264;11.330;2022-09-16T14:23:49;21.90;99.90
29547;DHT22;40782;47.264;11.330;2022-09-16T14:26:18;21.80;99.90
29547;DHT22;40782;47.264;11.330;2022-09-16T14:28:46;21.80;99.90
29547;DHT22;40782;47.264;11.330;2022-09-16T14:31:20;21.70;99.90
29547;DHT22;40782;47.264;11.330;2022-09-16T14:33:50;21.60;99.90
29547;DHT22;40782;47.264;11.330;2022-09-16T14:36:21;21.50;99.90
29547;DHT22;40782;47.264;11.330;2022-09-16T14:38:58;21.50;99.90
29547;DHT22;40782;47.264;11.330;2022-09-16T14:41:29;21.50;99.90
29547;DHT22;40782;47.264;11.330;2022-09-16T14:44:06;21.50;99.90
29547;DHT22;40782;47.264;11.330;2022-09-16T14:46:40;21.60;99.90
29547;DHT22;40782;47.264;11.330;2022-09-16T14:49:09;21.80;99.90
29547;DHT22;40782;47.264;11.330;2022-09-16T14:51:38;22.00;99.90
29547;DHT22;40782;47.264;11.330;2022-09-16T14:54:15;22.10;99.90
29547;DHT22;40782;47.264;11.330;2022-09-16T14:56:53;22.10;99.90
29547;DHT22;40782;47.264;11.330;2022-09-16T14:59:24;22.10;99.90
29547;DHT22;40782;47.264;11.330;2022-09-16T15:01:54;22.00;99.90
29547;DHT22;40782;47.264;11.330;2022-09-16T15:04:24;21.90;99.90
29547;DHT22;40782;47.264;11.330;2022-09-16T15:07:06;21.70;99.90
29547;DHT22;40782;47.264;11.330;2022-09-16T15:09:41;21.50;99.90
29547;DHT22;40782;47.264;11.330;2022-09-16T15:12:18;21.30;99.90
29547;DHT22;40782;47.264;11.330;2022-09-16T15:14:46;21.10;99.90
29547;DHT22;40782;47.264;11.330;2022-09-16T15:17:19;21.00;99.90
29547;DHT22;40782;47.264;11.330;2022-09-16T15:19:52;20.90;99.90
29547;DHT22;40782;47.264;11.330;2022-09-16T15:22:20;20.80;99.90
29547;DHT22;40782;47.264;11.330;2022-09-16T15:24:51;20.60;99.90
29547;DHT22;40782;47.264;11.330;2022-09-16T15:27:23;20.60;99.90
29547;DHT22;40782;47.264;11.330;2022-09-16T15:29:55;20.90;99.90
29547;DHT22;40782;47.264;11.330;2022-09-16T15:32:26;21.00;99.90
29547;DHT22;40782;47.264;11.330;2022-09-16T15:35:18;21.20;99.90
29547;DHT22;40782;47.264;11.330;2022-09-16T15:37:45;21.70;99.90
29547;DHT22;40782;47.264;11.330;2022-09-16T15:40:30;21.90;99.90
29547;DHT22;40782;47.264;11.330;2022-09-16T15:43:04;21.90;99.90
29547;DHT22;40782;47.264;11.330;2022-09-16T15:45:36;21.70;99.90
29547;DHT22;40782;47.264;11.330;2022-09-16T15:48:12;21.80;99.90
29547;DHT22;40782;47.264;11.330;2022-09-16T15:50:45;21.70;99.90
29547;DHT22;40782;47.264;11.330;2022-09-16T15:53:16;21.30;99.90
29547;DHT22;40782;47.264;11.330;2022-09-16T15:55:54;21.00;99.90
29547;DHT22;40782;47.264;11.330;2022-09-16T15:58:34;20.70;99.90
29547;DHT22;40782;47.264;11.330;2022-09-16T16:01:12;20.30;99.90
29547;DHT22;40782;47.264;11.330;2022-09-16T16:03:53;20.00;99.90
29547;DHT22;40782;47.264;11.330;2022-09-16T16:06:43;19.70;99.90